Sea Fury — WBL7992 — position and weather

sailwx.info

Track history (hours):
 
Tides and Currents Weather Stations Pressure Air Temp Water Temp Dewpoint Dewpoint Depression Visibility Wind Speed Wind Dir Waves Ship Positions

Sea Fury

Owner: SEABORN ENTERPRISES INC, GIG HARBOR, WA. More information available from US FCC via Universal Licensing System and Coast Guard Vessel Documentation Center.

Last reported at 2018-May-31 04:10 UTC. Time now 2018-Jun-20 17:09 UTC.
Position N 47°20' W 122°35'.
Warning: this ship's position is 20 days out of date.

Length 19 m.

Type: Fishing. MMSI: 366344650.

Date/timePositionNaut miles runAvg speedWind from/ knotsBaromVisibWave heightAir tempDewpointWater temp
2018-May-31 04:10N 47°20' W 122°35'2 8.0
2018-May-31 03:55N 47°21' W 122°33'4 8.3
2018-May-31 03:30N 47°25' W 122°32'4 9.0
2018-May-31 03:00N 47°29' W 122°30'5 9.4
2018-May-31 02:30N 47°34' W 122°28'5 9.4
2018-May-31 02:00N 47°38' W 122°29'5 8.9
2018-May-31 01:29N 47°43' W 122°28'  
2018-May-23 18:49N 47°54' W 122°31'3 9.2
2018-May-23 18:30N 47°52' W 122°30'4 8.6
2018-May-23 17:58N 47°47' W 122°28'4 7.9
2018-May-23 17:29N 47°43' W 122°28'4 8.0
2018-May-23 17:00N 47°40' W 122°28'4 7.9
2018-May-23 16:30N 47°36' W 122°28'4 8.2
2018-May-23 16:00N 47°32' W 122°29'4 8.4
2018-May-23 15:30N 47°28' W 122°31'5 8.9
2018-May-23 14:58N 47°23' W 122°32'  
Track history (hours):
 
Tides and Currents Weather Stations Pressure Air Temp Water Temp Dewpoint Dewpoint Depression Visibility Wind Speed Wind Dir Waves Ship Positions

Sea Fury

Owner: SEABORN ENTERPRISES INC, GIG HARBOR, WA. More information available from US FCC via Universal Licensing System and Coast Guard Vessel Documentation Center.

Last reported at 2018-May-31 04:10 UTC. Time now 2018-Jun-20 17:09 UTC.
Position N 47°20' W 122°35'.
Warning: this ship's position is 20 days out of date.

Length 19 m.

Type: Fishing. MMSI: 366344650.

Date/timePositionNaut miles runAvg speedWind from/ knotsBaromVisibWave heightAir tempDewpointWater temp
2018-May-31 04:10N 47°20' W 122°35'2 8.0
2018-May-31 03:55N 47°21' W 122°33'4 8.3
2018-May-31 03:30N 47°25' W 122°32'4 9.0
2018-May-31 03:00N 47°29' W 122°30'5 9.4
2018-May-31 02:30N 47°34' W 122°28'5 9.4
2018-May-31 02:00N 47°38' W 122°29'5 8.9
2018-May-31 01:29N 47°43' W 122°28'  
2018-May-23 18:49N 47°54' W 122°31'3 9.2
2018-May-23 18:30N 47°52' W 122°30'4 8.6
2018-May-23 17:58N 47°47' W 122°28'4 7.9
2018-May-23 17:29N 47°43' W 122°28'4 8.0
2018-May-23 17:00N 47°40' W 122°28'4 7.9
2018-May-23 16:30N 47°36' W 122°28'4 8.2
2018-May-23 16:00N 47°32' W 122°29'4 8.4
2018-May-23 15:30N 47°28' W 122°31'5 8.9
2018-May-23 14:58N 47°23' W 122°32'  

Dump ship's entire track history